Weather at Ryan's Creek Aerodrome

Public forecast

Using degrees Celsius for public forecast. Weather courtesy of forecast.io.

Closest aviation weather report (METAR) to Ryan's Creek Aerodrome

Closest report is Christchurch International Airport, 277.5 nm (514.0 km) NE. Retrieved 2022/06/29 10:00 UTC (14 minutes ago):

NZCH 291000Z AUTO 00000KT 2000 R02/1900U R20/P2000N BR VV002 00/00 Q1009 NOSIG

Closest aviation forecast (TAF) to Ryan's Creek Aerodrome

Forecast is more than 12 hours old.

Closest forecast is Queenstown International Airport, 115.9 nm (214.6 km) NNE. Retrieved 2022/03/28 12:06 UTC (3 months ago):

TAF NZQN 281106Z 2812/2906 04005KT 9999 SKC BECMG 2822/2900 25010KT BECMG 2903/2905 18010KT